Latest Weather Observations for Bathurst Airport

IDN60801

Issued at 2:04 pm EST Friday 29 May 2015 (issued every 30 minutes, with the page automatically refreshed every 10 minutes)

About weather observations | Map of weather stations | Latest weather observations for NSW | Other Formats
Station Details ID: 063291 Name: BATHURST AIRPORT AWS Lat: -33.41 Lon: 149.65 Height: 744.5 m
Data from the previous 72 hours. | See also: Recent months for locations in New South Wales
Date/Time
EST
Temp
°C
App
Temp
°C
Dew
Point
Rel
Hum
%
Delta-T
°C
Wind Press
QNH
hPa
Press
MSL
hPa
Rain
since 9 am
mm
Dir
 
Spd
km/h
Gust
km/h
Spd
kts
Gust
kts
29/02:00pm 13.5 10.3 8.4 71 2.6 SW 15 24 8 13 1022.2 1022.1 2.2
29/01:30pm 13.5 10.1 7.7 68 3.0 WSW 15 17 8 9 1022.1 1022.0 2.2
29/01:00pm 13.2 10.0 9.8 80 1.8 WSW 17 20 9 11 1022.5 1022.4 2.2
29/12:30pm 12.9 9.8 10.4 85 1.3 SW 17 24 9 13 1022.5 1022.4 2.2
29/12:00pm 12.8 9.6 10.0 83 1.5 WSW 17 20 9 11 1022.9 1022.8 2.2
29/11:30am 12.2 9.5 11.7 97 0.3 W 17 20 9 11 1023.3 1023.2 2.2
29/11:20am 12.1 9.8 11.9 99 0.1 WSW 15 20 8 11 1023.1 1023.1 2.2
29/11:17am 12.0 9.7 11.8 99 0.1 WSW 15 20 8 11 1023.1 1023.1 2.2
29/11:00am 11.6 9.2 11.4 99 0.1 NW 15 35 8 19 1023.4 1023.3 1.6
29/10:59am 12.6 10.9 12.6 100 0.0 NW 13 30 7 16 1023.3 1023.2 1.0
29/10:58am 12.6 11.3 12.6 100 0.0 NNW 11 17 6 9 1023.3 1023.2 0.8
29/10:30am 12.7 11.1 12.7 100 0.0 NNW 13 19 7 10 1023.1 1023.1 0.4
29/10:20am 12.6 10.9 12.6 100 0.0 NNW 13 17 7 9 1023.4 1023.3 0.4
29/10:07am 12.6 10.9 12.6 100 0.0 NW 13 17 7 9 1023.4 1023.3 0.4
29/10:04am 12.5 10.8 12.5 100 0.0 NW 13 17 7 9 1023.3 1023.2 0.4
29/10:02am 12.6 10.9 12.6 100 0.0 NW 13 17 7 9 1023.3 1023.2 0.4
29/10:00am 12.5 10.8 12.5 100 0.0 NW 13 20 7 11 1023.3 1023.2 0.4
29/09:34am 12.3 10.6 12.3 100 0.0 NW 13 17 7 9 1023.3 1023.2 0.0
29/09:30am 12.4 11.1 12.4 100 0.0 NW 11 15 6 8 1023.3 1023.2 0.0
29/09:00am 12.1 10.7 12.1 100 0.0 NNW 11 13 6 7 1023.1 1023.1 1.2
29/08:30am 11.9 10.8 11.9 100 0.0 NNW 9 13 5 7 1022.9 1022.8 1.2
29/08:05am 11.7 9.8 11.7 100 0.0 NNW 13 17 7 9 1022.8 1022.7 1.2
29/08:00am 11.6 9.3 11.6 100 0.0 NW 15 19 8 10 1022.7 1022.6 1.2
29/07:46am 11.5 9.1 11.5 100 0.0 NW 15 17 8 9 1022.6 1022.5 1.2
29/07:31am 11.5 8.7 11.5 100 0.0 NW 17 20 9 11 1022.5 1022.4 1.2
29/07:30am 11.4 9.0 11.4 100 0.0 NW 15 20 8 11 1022.5 1022.4 1.0
29/07:27am 11.5 9.1 11.5 100 0.0 NW 15 17 8 9 1022.5 1022.4 0.8
29/07:05am 11.5 8.7 11.5 100 0.0 NW 17 22 9 12 1022.4 1022.3 0.8
29/07:00am 11.5 8.7 11.5 100 0.0 NW 17 22 9 12 1022.4 1022.3 0.6
29/06:34am 11.5 9.1 11.5 100 0.0 NW 15 19 8 10 1022.3 1022.2 0.4
29/06:30am 11.5 8.7 11.5 100 0.0 NW 17 20 9 11 1022.3 1022.2 0.4
29/06:18am 11.6 8.3 11.6 100 0.0 NW 20 24 11 13 1022.2 1022.1 0.4
29/06:00am 12.1 8.9 11.8 98 0.2 NW 20 32 11 17 1021.9 1021.7 0.0
29/05:30am 12.2 8.9 11.7 97 0.3 NW 20 28 11 15 1021.4 1021.3 0.0
29/05:00am 12.2 8.4 11.3 94 0.5 NW 22 32 12 17 1021.3 1021.2 0.0
29/04:30am 11.9 7.7 11.0 94 0.5 NNW 24 37 13 20 1021.0 1020.9 0.0
29/04:18am 11.9 7.7 11.0 94 0.5 NNW 24 39 13 21 1021.1 1021.0 0.0
29/04:00am 12.0 7.4 11.1 94 0.5 NNW 26 32 14 17 1021.1 1021.0 0.0
29/03:30am 12.0 9.2 11.2 95 0.4 N 17 28 9 15 1021.3 1021.2 0.0
29/03:00am 11.3 9.2 11.3 100 0.0 N 13 17 7 9 1021.1 1021.0 0.0
29/02:30am 11.1 9.0 11.1 100 0.0 N 13 13 7 7 1021.6 1021.5 0.0
29/02:00am 11.1 9.8 11.1 100 0.0 N 9 11 5 6 1022.0 1021.9 0.0
29/01:30am 11.2 9.5 11.2 100 0.0 N 11 13 6 7 1022.0 1021.9 0.0
29/01:00am 11.3 8.8 11.1 99 0.1 N 15 19 8 10 1022.0 1021.9 0.0
29/12:35am 11.5 8.7 11.3 99 0.1 NNW 17 19 9 10 1022.2 1022.1 0.0
29/12:30am 11.5 8.7 11.3 99 0.1 NNW 17 22 9 12 1022.3 1022.2 0.0
29/12:00am 11.8 9.1 11.6 99 0.1 NNW 17 20 9 11 1022.7 1022.6 0.0
 
Date/Time
EST
Temp
°C
App
Temp
°C
Dew
Point
Rel
Hum
%
Delta-T
°C
Wind Press
QNH
hPa
Press
MSL
hPa
Rain
since 9 am
mm
Dir
 
Spd
km/h
Gust
km/h
Spd
kts
Gust
kts
28/11:30pm 11.7 8.9 11.5 99 0.1 NNW 17 22 9 12 1022.8 1022.7 0.0
28/11:28pm 11.8 9.1 11.6 99 0.1 NNW 17 22 9 12 1022.7 1022.6 0.0
28/11:00pm 11.7 8.5 11.4 98 0.2 N 19 20 10 11 1022.5 1022.4 0.0
28/10:35pm 11.8 9.3 11.2 96 0.3 N 15 17 8 9 1022.7 1022.6 0.0
28/10:30pm 11.9 9.8 11.3 96 0.3 N 13 17 7 9 1022.8 1022.7 0.0
28/10:16pm 11.9 9.8 11.3 96 0.3 N 13 19 7 10 1022.8 1022.7 0.0
28/10:00pm 11.8 9.7 11.3 97 0.3 N 13 17 7 9 1022.8 1022.7 0.0
28/09:30pm 12.0 9.9 11.2 95 0.4 N 13 17 7 9 1023.0 1022.9 0.0
28/09:00pm 11.8 8.6 11.2 96 0.3 N 19 22 10 12 1023.0 1022.9 0.0
28/08:30pm 11.9 8.7 11.4 97 0.3 N 19 22 10 12 1022.9 1022.8 0.0
28/08:00pm 11.5 9.4 11.3 99 0.1 N 13 20 7 11 1023.0 1022.9 0.0
28/07:30pm 11.5 9.4 11.3 99 0.1 N 13 17 7 9 1022.9 1022.8 0.0
28/07:00pm 11.2 9.1 11.2 100 0.0 NNW 13 17 7 9 1023.3 1023.2 0.0
28/06:30pm 11.3 8.9 11.3 100 0.0 N 15 17 8 9 1022.4 1022.3 0.0
28/06:00pm 11.3 8.4 11.1 99 0.1 N 17 17 9 9 1022.6 1022.5 0.0
28/05:30pm 11.5 8.7 11.3 99 0.1 N 17 19 9 10 1022.5 1022.4 0.0
28/05:00pm 12.3 10.0 11.8 97 0.3 NNW 15 17 8 9 1022.7 1022.6 0.0
28/04:30pm 12.9 10.6 11.8 93 0.6 NNW 15 20 8 11 1022.5 1022.4 0.0
28/04:25pm 12.9 10.7 12.0 94 0.5 N 15 17 8 9 1022.5 1022.4 0.0
28/04:00pm 13.0 11.1 11.7 92 0.7 N 13 15 7 8 1022.5 1022.4 0.0
28/03:30pm 14.1 12.1 11.6 85 1.4 N 13 17 7 9 1022.6 1022.5 0.0
28/03:00pm 13.3 12.1 11.5 89 1.0 NNW 9 13 5 7 1022.5 1022.4 0.0
28/02:57pm 13.1 11.7 10.8 86 1.3 N 9 13 5 7 1022.5 1022.4 0.0
28/02:45pm 13.4 12.0 10.8 84 1.4 NNW 9 13 5 7 1022.6 1022.5 0.0
28/02:30pm 13.2 12.2 10.9 86 1.3 NNW 7 13 4 7 1022.8 1022.7 0.0
28/02:00pm 12.7 12.6 10.8 88 1.0 NW 2 7 1 4 1022.9 1022.8 0.0
28/01:30pm 11.4 10.3 9.8 90 0.8 W 6 7 3 4 1023.0 1022.9 0.0
28/01:00pm 11.0 10.1 9.1 88 1.0 WSW 4 7 2 4 1023.4 1023.3 0.0
28/12:30pm 11.3 10.1 9.4 88 1.0 NW 6 9 3 5 1023.8 1023.7 0.0
28/12:00pm 10.6 10.0 8.9 89 0.9 WSW 2 7 1 4 1024.2 1024.1 0.0
28/11:30am 10.1 8.7 9.0 93 0.6 W 6 9 3 5 1024.5 1024.5 0.0
28/11:23am 10.1 9.4 8.7 91 0.7 W 2 7 1 4 1024.7 1024.6 0.0
28/11:22am 10.1 9.4 8.7 91 0.7 WNW 2 7 1 4 1024.7 1024.6 0.0
28/11:12am 9.9 9.8 9.4 97 0.3 CALM 0 0 0 0 1024.8 1024.7 0.0
28/11:11am 9.9 9.8 9.4 97 0.3 CALM 0 0 0 0 1024.8 1024.7 0.0
28/11:00am 8.9 7.8 8.6 98 0.2 SW 4 9 2 5 1024.9 1024.8 0.0
28/10:30am 8.8 7.1 8.2 96 0.3 W 7 9 4 5 1025.3 1025.2 0.0
28/10:00am 8.6 8.3 8.5 99 0.1 CALM 0 0 0 0 1025.4 1025.3 0.0
28/09:30am 7.8 7.3 7.7 99 0.0 CALM 0 0 0 0 1025.3 1025.2 0.0
28/09:00am 7.0 5.9 7.0 100 0.0 SSE 2 6 1 3 1025.2 1025.1 0.0
28/08:50am 6.6 5.4 6.6 100 0.0 SSE 2 6 1 3 1025.2 1025.1 0.0
28/08:48am 6.6 5.4 6.6 100 0.0 S 2 6 1 3 1025.2 1025.1 0.0
28/08:30am 6.2 5.3 6.2 100 0.0 CALM 0 0 0 0 1025.2 1025.1 0.0
28/08:00am 5.8 4.8 5.8 100 0.0 CALM 0 0 0 0 1025.1 1025.0 0.0
28/07:59am 5.8 4.8 5.8 100 0.0 CALM 0 0 0 0 1025.2 1025.1 0.0
28/07:30am 5.4 3.2 5.4 100 0.0 SSW 6 7 3 4 1024.9 1024.8 0.0
28/07:00am 5.0 3.9 5.0 100 0.0 CALM 0 6 0 3 1024.3 1024.3 0.0
28/06:30am 4.8 2.9 4.8 100 0.0 ESE 4 6 2 3 1024.1 1024.0 0.0
28/06:00am 4.8 1.9 4.8 100 0.0 S 9 9 5 5 1024.2 1024.1 0.0
28/05:30am 4.7 3.1 4.7 100 0.0 SW 2 7 1 4 1023.8 1023.7 0.0
28/05:00am 4.7 2.4 4.7 100 0.0 SE 6 7 3 4 1023.6 1023.5 0.0
28/04:30am 4.8 2.5 4.8 100 0.0 S 6 11 3 6 1023.7 1023.6 0.0
28/04:07am 4.7 2.8 4.7 100 0.0 SE 4 9 2 5 1023.8 1023.7 0.0
28/04:00am 4.2 2.9 4.2 100 0.0 CALM 0 0 0 0 1023.8 1023.7 0.0
28/03:34am 3.8 2.4 3.8 100 0.0 CALM 0 0 0 0 1024.0 1023.9 0.0
28/03:30am 4.1 2.8 4.1 100 0.0 CALM 0 0 0 0 1024.0 1023.9 0.0
28/03:00am 3.7 2.3 3.6 99 0.0 CALM 0 0 0 0 1023.9 1023.8 0.0
28/02:37am 3.6 2.2 3.5 99 0.0 CALM 0 0 0 0 1023.9 1023.8 0.0
28/02:30am 3.7 2.3 3.6 99 0.0 CALM 0 0 0 0 1023.9 1023.8 0.0
28/02:12am 3.9 2.2 3.8 99 0.0 SE 2 7 1 4 1024.0 1023.9 0.0
28/02:00am 5.1 2.9 5.1 100 0.0 SE 6 7 3 4 1024.1 1024.0 0.0
28/01:30am 5.3 2.5 5.3 100 0.0 SE 9 11 5 6 1024.3 1024.3 0.0
28/01:00am 5.4 3.0 5.4 100 0.0 SE 7 7 4 4 1024.5 1024.5 0.0
28/12:30am 5.4 3.6 5.3 99 0.0 E 4 6 2 3 1024.7 1024.6 0.0
28/12:00am 6.1 5.2 6.0 99 0.0 CALM 0 0 0 0 1024.7 1024.6 0.0
 
Date/Time
EST
Temp
°C
App
Temp
°C
Dew
Point
Rel
Hum
%
Delta-T
°C
Wind Press
QNH
hPa
Press
MSL
hPa
Rain
since 9 am
mm
Dir
 
Spd
km/h
Gust
km/h
Spd
kts
Gust
kts
27/11:30pm 6.3 5.4 6.2 99 0.0 CALM 0 0 0 0 1024.8 1024.7 0.0
27/11:00pm 6.4 5.6 6.3 99 0.0 CALM 0 0 0 0 1024.7 1024.6 0.0
27/10:30pm 6.4 5.6 6.3 99 0.0 CALM 0 0 0 0 1024.7 1024.6 0.0
27/10:00pm 7.3 6.4 5.9 91 0.7 CALM 0 0 0 0 1024.7 1024.6 0.0
27/09:30pm 8.2 6.2 7.0 92 0.6 E 7 9 4 5 1024.7 1024.6 0.0
27/09:00pm 8.6 6.5 6.7 88 0.9 NE 7 7 4 4 1024.8 1024.7 0.0
27/08:30pm 9.1 7.4 7.4 89 0.8 NE 6 7 3 4 1024.9 1024.8 0.0
27/08:00pm 9.3 7.4 7.4 88 0.9 NE 7 7 4 4 1024.8 1024.7 0.0
27/07:30pm 9.2 7.3 7.5 89 0.8 NE 7 9 4 5 1024.4 1024.4 0.0
27/07:00pm 9.4 7.5 7.7 89 0.8 NNE 7 7 4 4 1024.4 1024.4 0.0
27/06:30pm 9.4 7.3 8.2 92 0.6 N 9 11 5 6 1024.1 1024.0 0.0
27/06:00pm 9.9 7.7 7.7 86 1.1 N 9 11 5 6 1023.9 1023.8 0.0
27/05:30pm 10.9 9.1 7.8 81 1.6 N 7 9 4 5 1023.7 1023.6 0.0
27/05:00pm 11.6 9.9 8.3 80 1.7 N 7 7 4 4 1023.6 1023.5 0.0
27/04:30pm 12.1 10.5 7.8 75 2.2 N 6 9 3 5 1023.3 1023.2 0.0
27/04:00pm 12.4 10.2 7.9 74 2.3 N 9 13 5 7 1023.5 1023.4 0.0
27/03:30pm 12.7 9.6 7.4 70 2.7 N 13 17 7 9 1023.6 1023.5 0.0
27/03:00pm 13.2 10.2 7.6 69 2.8 N 13 15 7 8 1023.9 1023.8 0.0
27/02:30pm 12.8 10.5 7.5 70 2.7 N 9 13 5 7 1023.9 1023.8 0.0
27/02:00pm 12.6 9.9 7.3 70 2.7 N 11 15 6 8 1024.0 1023.9 0.0
27/01:30pm 12.9 10.5 6.9 67 3.0 NNW 9 13 5 7 1024.1 1024.0 0.0
27/01:00pm 12.8 10.1 7.5 70 2.7 N 11 13 6 7 1024.3 1024.3 0.0
27/12:30pm 12.2 9.8 7.1 71 2.6 NNW 9 13 5 7 1025.0 1024.9 0.0
27/12:00pm 12.1 9.8 7.4 73 2.4 NNW 9 11 5 6 1025.3 1025.2 0.0
27/11:30am 11.9 9.7 6.2 68 2.8 WNW 7 11 4 6 1025.7 1025.7 0.0
27/11:00am 12.5 10.4 5.9 64 3.2 WNW 6 11 3 6 1026.1 1026.0 0.0
27/10:30am 12.0 9.9 5.9 66 3.0 NNE 6 9 3 5 1025.9 1025.9 0.0
27/10:00am 10.3 9.5 6.3 76 1.9 CALM 0 0 0 0 1026.5 1026.4 0.0
27/09:30am 7.3 6.3 5.8 90 0.7 CALM 0 0 0 0 1026.8 1026.8 0.0
27/09:00am 7.0 6.3 6.9 99 0.0 CALM 0 0 0 0 1026.5 1026.4 0.0
27/08:39am 6.1 4.1 6.1 100 0.0 SSE 6 9 3 5 1026.3 1026.2 0.0
27/08:30am 5.1 2.7 5.1 100 0.0 SSW 7 9 4 5 1026.4 1026.3 0.0
27/08:08am 4.6 1.7 4.6 100 0.0 SW 9 11 5 6 1026.1 1026.0 0.0
27/08:00am 4.6 2.1 4.6 100 0.0 SSW 7 9 4 5 1026.1 1026.0 0.0
27/07:30am 4.3 1.9 4.3 100 0.0 ESE 6 11 3 6 1025.6 1025.6 0.0
27/07:25am 4.2 1.2 4.2 100 0.0 E 9 11 5 6 1025.5 1025.5 0.0
27/07:00am 3.6 2.2 3.6 100 0.0 CALM 0 0 0 0 1025.4 1025.3 0.0
27/06:30am 3.7 2.3 3.6 99 0.0 CALM 0 0 0 0 1025.4 1025.3 0.0
27/06:16am 3.9 2.6 3.9 100 0.0 CALM 0 0 0 0 1025.1 1025.0 0.0
27/06:00am 3.8 2.4 3.7 99 0.0 CALM 0 0 0 0 1025.2 1025.1 0.0
27/05:30am 3.9 1.4 3.8 99 0.0 SW 6 9 3 5 1025.3 1025.2 0.0
27/05:00am 4.8 3.6 4.7 99 0.0 CALM 0 0 0 0 1024.9 1024.8 0.0
27/04:30am 4.9 3.7 4.8 99 0.0 CALM 0 0 0 0 1025.1 1025.0 0.0
27/04:00am 4.9 3.4 4.8 99 0.0 S 2 7 1 4 1025.1 1025.0 0.0
27/03:30am 5.0 3.5 4.9 99 0.0 S 2 9 1 5 1025.3 1025.2 0.0
27/03:00am 5.1 4.0 5.0 99 0.0 CALM 0 0 0 0 1025.5 1025.5 0.0
27/02:30am 5.7 4.2 5.1 96 0.3 SE 2 7 1 4 1025.7 1025.7 0.0
27/02:00am 6.4 3.5 4.9 90 0.7 ESE 9 11 5 6 1025.7 1025.7 0.0
27/01:30am 6.5 4.3 6.2 98 0.1 ESE 7 9 4 5 1026.3 1026.2 0.0
27/01:00am 6.0 5.1 5.9 99 0.0 CALM 0 0 0 0 1026.5 1026.4 0.0
27/12:30am 5.8 4.1 5.7 99 0.0 NNE 4 6 2 3 1026.5 1026.4 0.0
27/12:00am 6.1 4.4 5.8 98 0.1 NNE 4 9 2 5 1026.4 1026.3 0.0
 
Date/Time
EST
Temp
°C
App
Temp
°C
Dew
Point
Rel
Hum
%
Delta-T
°C
Wind Press
QNH
hPa
Press
MSL
hPa
Rain
since 9 am
mm
Dir
 
Spd
km/h
Gust
km/h
Spd
kts
Gust
kts
26/11:30pm 6.2 4.1 5.9 98 0.1 NNE 6 7 3 4 1026.4 1026.3 0.0
26/11:00pm 6.3 5.4 6.2 99 0.0 CALM 0 0 0 0 1026.6 1026.6 0.0
26/10:30pm 5.7 3.0 5.6 99 0.0 N 9 13 5 7 1026.7 1026.7 0.0
26/10:00pm 6.4 4.4 6.3 99 0.0 ENE 6 11 3 6 1026.5 1026.4 0.0
26/09:30pm 6.2 3.6 5.9 98 0.1 E 9 13 5 7 1026.9 1026.9 0.0
26/09:00pm 6.7 3.4 6.6 99 0.0 SW 13 19 7 10 1027.0 1027.0 0.0
26/08:30pm 7.3 5.9 5.6 89 0.8 E 2 9 1 5 1026.5 1026.4 0.0
26/08:00pm 7.7 5.1 6.3 91 0.7 E 9 20 5 11 1026.5 1026.4 0.0
26/07:30pm 7.6 6.1 6.9 95 0.3 NE 4 9 2 5 1027.0 1027.0 0.0
26/07:00pm 7.3 4.9 7.0 98 0.1 NE 9 11 5 6 1027.2 1027.2 0.0
26/06:30pm 7.0 4.4 6.1 94 0.4 N 9 11 5 6 1027.3 1027.3 0.0
26/06:00pm 8.3 7.5 6.3 87 1.0 CALM 0 0 0 0 1027.0 1027.0 0.0
26/05:30pm 8.5 7.0 6.8 89 0.8 NW 4 7 2 4 1026.7 1026.7 0.0
26/05:00pm 9.1 8.2 6.2 82 1.4 CALM 0 0 0 0 1026.4 1026.3 0.0
26/04:30pm 9.8 8.9 6.0 77 1.8 CALM 0 0 0 0 1026.4 1026.3 0.0
26/04:00pm 10.0 7.8 6.0 76 1.9 N 7 9 4 5 1026.6 1026.6 0.0
26/03:30pm 10.1 8.0 5.7 74 2.1 NNE 6 9 3 5 1026.6 1026.6 0.0
26/03:00pm 10.1 8.0 5.9 75 2.0 NW 6 9 3 5 1027.1 1027.1 0.0
26/02:30pm 10.0 7.4 6.0 76 1.9 WNW 9 11 5 6 1027.3 1027.3 0.0

Other Formats:

Comma delimited format used in spreadsheet applications
http://www.bom.gov.au/fwo/IDN60801/IDN60801.94729.axf

JavaScript Object Notation format (JSON) in row-major order
http://www.bom.gov.au/fwo/IDN60801/IDN60801.94729.json